Terminal Aerodrome Forecast
Issued by NWS

Home | Current Version | Previous Version | Text Only | Print | Product List | Glossary On
Versions: 1 2 3 4 5 6 7 8 9 10 11 12
973
FTUS43 KTOP 222327
TAFFOE
TAF
KFOE 222327Z 2300/2324 16013G20KT P6SM SKC
     FM230200 16011KT P6SM FEW250
     FM231900 17013G21KT P6SM FEW060=

USA.gov is the U.S. government's official web portal to all federal, state and local government web resources and services.